createdAt,value
2019-04-14T00:00:33.625Z,22.73
2019-04-14T00:03:23.694Z,23.20
2019-04-14T00:06:00.775Z,23.07
2019-04-14T00:08:32.986Z,24.30
2019-04-14T00:11:06.166Z,23.87
2019-04-14T00:13:34.945Z,25.73
2019-04-14T00:16:05.305Z,28.23
2019-04-14T00:18:35.901Z,29.43
2019-04-14T00:21:10.799Z,27.37
2019-04-14T00:23:41.374Z,28.20
2019-04-14T00:26:42.286Z,27.73
2019-04-14T00:29:13.085Z,27.37
2019-04-14T00:31:51.884Z,27.23
2019-04-14T00:34:33.126Z,25.33
2019-04-14T00:37:33.961Z,31.40
2019-04-14T00:40:10.498Z,29.10
2019-04-14T00:42:56.117Z,27.37
2019-04-14T00:45:41.587Z,28.00
2019-04-14T00:48:14.108Z,31.00
2019-04-14T00:50:43.085Z,28.00
2019-04-14T00:53:20.992Z,28.23
2019-04-14T00:55:51.235Z,27.80
2019-04-14T00:58:21.447Z,29.80
2019-04-14T01:01:00.447Z,31.17
2019-04-14T01:03:48.264Z,28.67
2019-04-14T01:06:25.720Z,30.43
2019-04-14T01:08:58.486Z,28.43
2019-04-14T01:11:29.379Z,26.80
2019-04-14T01:14:03.649Z,28.37
2019-04-14T01:16:47.350Z,27.30
2019-04-14T01:19:19.876Z,25.50
2019-04-14T01:21:52.523Z,25.03
2019-04-14T01:24:25.433Z,25.07
2019-04-14T01:26:57.925Z,23.07
2019-04-14T01:29:42.725Z,22.90
2019-04-14T01:32:17.569Z,24.37
2019-04-14T01:34:51.199Z,23.70
2019-04-14T01:37:29.527Z,23.23
2019-04-14T01:40:03.185Z,23.83
2019-04-14T01:42:37.503Z,25.53
2019-04-14T01:45:12.182Z,24.20
2019-04-14T01:47:44.906Z,24.10
2019-04-14T01:50:23.478Z,22.67
2019-04-14T01:53:14.635Z,25.30
2019-04-14T01:56:14.382Z,23.93
2019-04-14T01:58:53.447Z,24.90
2019-04-14T02:01:41.486Z,25.47
2019-04-14T02:04:11.873Z,26.00
2019-04-14T02:06:43.869Z,26.67
2019-04-14T02:09:18.630Z,24.27
2019-04-14T02:11:51.028Z,23.73
2019-04-14T02:14:23.261Z,23.50
2019-04-14T02:16:57.103Z,25.20
2019-04-14T02:19:26.419Z,24.07
2019-04-14T02:22:02.722Z,24.83
2019-04-14T02:24:35.275Z,23.23
2019-04-14T02:27:16.638Z,24.10
2019-04-14T02:29:51.545Z,24.23
2019-04-14T02:32:49.866Z,24.80
2019-04-14T02:35:28.720Z,22.77
2019-04-14T02:38:16.177Z,23.47
2019-04-14T02:43:19.741Z,23.50
2019-04-14T02:45:50.500Z,22.07
2019-04-14T02:48:36.046Z,25.00
2019-04-14T02:50:56.121Z,24.73
2019-04-14T02:53:57.708Z,26.07
2019-04-14T02:56:16.438Z,25.80
2019-04-14T02:58:59.902Z,25.40
2019-04-14T03:01:35.325Z,24.80
2019-04-14T03:03:50.766Z,24.53
2019-04-14T03:06:21.645Z,26.03
2019-04-14T03:08:59.142Z,24.57
2019-04-14T03:11:27.882Z,26.80
2019-04-14T03:13:58.412Z,24.43
2019-04-14T03:16:32.977Z,25.50
2019-04-14T03:19:35.607Z,24.90
2019-04-14T03:22:21.589Z,25.67
2019-04-14T03:24:50.309Z,24.67
2019-04-14T03:30:57.825Z,24.83
2019-04-14T03:36:26.828Z,24.70
2019-04-14T03:38:26.429Z,24.50
2019-04-14T03:40:50.667Z,24.63
2019-04-14T03:43:24.909Z,23.43
2019-04-14T03:46:04.848Z,24.53
2019-04-14T03:51:03.788Z,22.77
2019-04-14T03:56:14.864Z,21.73
2019-04-14T03:58:46.508Z,23.47
2019-04-14T04:01:19.341Z,23.30
2019-04-14T04:03:49.941Z,22.33
2019-04-14T04:06:25.559Z,24.00
2019-04-14T04:08:55.279Z,23.70
2019-04-14T04:11:25.735Z,23.90
2019-04-14T04:13:58.550Z,23.50
2019-04-14T04:16:46.801Z,24.57
2019-04-14T04:19:23.345Z,21.87
2019-04-14T04:22:10.622Z,24.83
2019-04-14T04:25:05.119Z,23.97
2019-04-14T04:27:46.178Z,23.70
2019-04-14T04:30:34.823Z,24.03
2019-04-14T04:33:22.007Z,25.53
2019-04-14T04:35:59.648Z,23.90
2019-04-14T04:38:53.497Z,22.57
2019-04-14T04:41:28.005Z,24.07
2019-04-14T04:44:00.716Z,22.70
2019-04-14T04:46:31.051Z,23.93
2019-04-14T04:49:09.846Z,24.27
2019-04-14T04:51:37.846Z,23.50
2019-04-14T04:54:08.179Z,22.70
2019-04-14T04:56:38.356Z,23.70
2019-04-14T05:02:11.416Z,22.00
2019-04-14T05:04:41.577Z,21.93
2019-04-14T05:07:19.132Z,22.13
2019-04-14T05:10:09.054Z,21.23
2019-04-14T05:12:47.943Z,21.23
2019-04-14T05:15:40.262Z,19.50
2019-04-14T05:18:15.604Z,22.70
2019-04-14T05:20:44.935Z,19.17
2019-04-14T05:23:23.470Z,20.50
2019-04-14T05:25:56.080Z,19.57
2019-04-14T05:28:26.584Z,20.00
2019-04-14T05:30:56.871Z,20.40
2019-04-14T05:33:27.150Z,20.63
2019-04-14T05:35:57.429Z,19.37
2019-04-14T05:38:30.303Z,20.07
2019-04-14T05:40:58.370Z,18.77
2019-04-14T05:43:46.714Z,18.97
2019-04-14T05:46:08.202Z,19.27
2019-04-14T05:48:38.116Z,21.73
2019-04-14T05:51:08.498Z,18.47
2019-04-14T05:53:39.411Z,20.03
2019-04-14T05:56:12.206Z,18.00
2019-04-14T05:58:44.795Z,18.43
2019-04-14T06:01:18.298Z,18.20
2019-04-14T06:03:47.634Z,18.23
2019-04-14T06:06:17.001Z,18.00
2019-04-14T06:08:46.296Z,19.60
2019-04-14T06:11:20.172Z,17.33
2019-04-14T06:13:51.972Z,17.77
2019-04-14T06:16:22.850Z,19.33
2019-04-14T06:18:52.271Z,17.80
2019-04-14T06:21:26.578Z,18.13
2019-04-14T06:24:01.341Z,18.33
2019-04-14T06:26:32.795Z,16.93
2019-04-14T06:29:04.707Z,18.03
2019-04-14T06:31:53.478Z,18.97
2019-04-14T06:34:50.535Z,17.40
2019-04-14T06:37:27.543Z,19.47
2019-04-14T06:39:56.909Z,17.57
2019-04-14T06:42:26.374Z,18.00
2019-04-14T06:44:56.448Z,18.07
2019-04-14T06:47:26.189Z,17.67
2019-04-14T06:49:55.928Z,19.03
2019-04-14T06:52:25.637Z,18.50
2019-04-14T06:54:55.349Z,17.63
2019-04-14T06:57:25.366Z,17.17
2019-04-14T06:59:59.307Z,17.90
2019-04-14T07:02:29.228Z,16.93
2019-04-14T07:05:02.388Z,17.10
2019-04-14T07:07:35.440Z,16.70
2019-04-14T07:10:10.186Z,17.40
2019-04-14T07:12:54.397Z,17.03
2019-04-14T07:15:33.349Z,18.70
2019-04-14T07:18:12.188Z,18.63
2019-04-14T07:20:59.191Z,18.57
2019-04-14T07:24:00.264Z,16.67
2019-04-14T07:26:43.080Z,17.50
2019-04-14T07:29:14.835Z,17.20
2019-04-14T07:32:06.104Z,19.00
2019-04-14T07:34:48.757Z,19.30
2019-04-14T07:37:46.706Z,18.10
2019-04-14T07:40:47.575Z,18.37
2019-04-14T07:43:49.196Z,16.77
2019-04-14T07:46:47.554Z,18.57
2019-04-14T07:49:47.045Z,18.50
2019-04-14T07:52:54.483Z,18.83
2019-04-14T07:55:48.933Z,22.03
2019-04-14T07:58:48.046Z,16.73
2019-04-14T08:01:33.560Z,16.40
2019-04-14T08:04:14.896Z,18.10
2019-04-14T08:06:53.772Z,17.40
2019-04-14T08:09:24.420Z,16.23
2019-04-14T08:11:58.589Z,17.17
2019-04-14T08:14:29.277Z,17.27
2019-04-14T08:16:59.174Z,16.67
2019-04-14T08:19:33.307Z,15.27
2019-04-14T08:22:04.460Z,16.60
2019-04-14T08:24:39.219Z,16.60
2019-04-14T08:27:11.979Z,16.20
2019-04-14T08:29:44.047Z,17.43
2019-04-14T08:32:19.563Z,18.30
2019-04-14T08:34:50.807Z,15.87
2019-04-14T08:37:38.048Z,15.87
2019-04-14T08:40:14.643Z,16.63
2019-04-14T08:43:03.299Z,16.13
2019-04-14T08:45:58.400Z,14.87
2019-04-14T08:52:38.979Z,14.77
2019-04-14T08:55:35.279Z,13.67
2019-04-14T08:58:30.794Z,14.97
2019-04-14T09:01:08.021Z,16.27
2019-04-14T09:03:54.944Z,14.90
2019-04-14T09:06:57.567Z,16.00
2019-04-14T09:09:39.424Z,14.40
2019-04-14T09:12:42.679Z,15.93
2019-04-14T09:15:32.256Z,15.10
2019-04-14T09:18:09.950Z,14.87
2019-04-14T09:20:52.272Z,15.83
2019-04-14T09:23:20.401Z,15.27
2019-04-14T09:25:55.852Z,15.17
2019-04-14T09:28:35.539Z,15.93
2019-04-14T09:31:11.851Z,16.47
2019-04-14T09:33:49.104Z,16.07
2019-04-14T09:36:24.301Z,14.60
2019-04-14T09:39:02.824Z,15.17
2019-04-14T09:41:42.738Z,15.80
2019-04-14T09:44:41.970Z,15.33
2019-04-14T09:47:27.365Z,13.47
2019-04-14T09:50:25.135Z,16.27
2019-04-14T09:53:11.765Z,13.87
2019-04-14T09:56:07.559Z,15.17
2019-04-14T09:59:03.948Z,14.03
2019-04-14T10:01:42.583Z,15.20
2019-04-14T10:04:16.875Z,14.23
2019-04-14T10:06:54.376Z,13.23
2019-04-14T10:09:36.195Z,14.20
2019-04-14T10:12:14.030Z,14.60
2019-04-14T10:14:44.907Z,12.37
2019-04-14T10:17:17.506Z,13.27
2019-04-14T10:19:48.103Z,14.53
2019-04-14T10:22:18.683Z,14.40
2019-04-14T10:24:53.491Z,14.43
2019-04-14T10:27:26.734Z,14.33
2019-04-14T10:30:02.839Z,14.10
2019-04-14T10:32:38.967Z,14.90
2019-04-14T10:35:08.418Z,15.23
2019-04-14T10:37:43.362Z,15.30
2019-04-14T10:40:14.005Z,13.83
2019-04-14T10:42:43.401Z,14.00
2019-04-14T10:45:18.507Z,17.00
2019-04-14T10:47:50.526Z,14.37
2019-04-14T10:50:30.729Z,13.27
2019-04-14T10:52:52.779Z,13.83
2019-04-14T10:55:22.177Z,14.73
2019-04-14T10:57:51.548Z,13.43
2019-04-14T11:00:31.515Z,13.60
2019-04-14T11:03:02.492Z,13.10
2019-04-14T11:05:42.030Z,13.70
2019-04-14T11:08:12.228Z,13.03
2019-04-14T11:10:41.573Z,13.33
2019-04-14T11:13:11.305Z,14.53
2019-04-14T11:15:40.647Z,14.30
2019-04-14T11:18:10.002Z,13.00
2019-04-14T11:20:41.358Z,13.43
2019-04-14T11:23:15.847Z,14.93
2019-04-14T11:25:45.188Z,13.27
2019-04-14T11:28:14.490Z,12.40
2019-04-14T11:30:45.519Z,14.33
2019-04-14T11:33:42.809Z,13.07
2019-04-14T11:36:30.242Z,14.27
2019-04-14T11:39:05.546Z,13.77
2019-04-14T11:41:34.915Z,13.97
2019-04-14T11:44:04.931Z,14.13
2019-04-14T11:46:34.310Z,13.43
2019-04-14T11:49:05.587Z,12.80
2019-04-14T11:51:36.780Z,13.07
2019-04-14T11:54:07.727Z,13.33
2019-04-14T11:56:37.432Z,12.60
2019-04-14T11:59:06.731Z,13.10
2019-04-14T12:01:48.051Z,14.50
2019-04-14T12:04:30.113Z,13.67
2019-04-14T12:07:23.947Z,14.17
2019-04-14T12:10:05.012Z,12.83
2019-04-14T12:12:34.363Z,13.93
2019-04-14T12:15:07.467Z,13.40
2019-04-14T12:17:35.621Z,13.43
2019-04-14T12:20:14.607Z,12.97
2019-04-14T12:22:50.841Z,12.07
2019-04-14T12:25:20.716Z,13.23
2019-04-14T12:27:51.303Z,13.20
2019-04-14T12:30:24.912Z,13.30
2019-04-14T12:32:57.476Z,13.73
2019-04-14T12:35:27.483Z,14.27
2019-04-14T12:37:58.357Z,13.57
2019-04-14T12:40:27.929Z,14.20
2019-04-14T12:43:08.559Z,14.27
2019-04-14T12:45:49.154Z,13.67
2019-04-14T12:48:29.198Z,13.70
2019-04-14T12:51:02.675Z,12.70
2019-04-14T12:53:32.003Z,12.33
2019-04-14T12:56:09.215Z,13.10
2019-04-14T12:59:10.135Z,13.37
2019-04-14T13:01:48.147Z,14.47
2019-04-14T13:04:17.806Z,14.27
2019-04-14T13:06:47.187Z,14.83
2019-04-14T13:09:25.989Z,13.27
2019-04-14T13:11:55.329Z,13.73
2019-04-14T13:14:27.891Z,12.60
2019-04-14T13:17:07.532Z,13.03
2019-04-14T13:19:39.167Z,12.93
2019-04-14T13:22:11.262Z,15.27
2019-04-14T13:24:40.615Z,13.30
2019-04-14T13:27:13.654Z,12.13
2019-04-14T13:29:43.037Z,14.20
2019-04-14T13:32:13.399Z,12.10
2019-04-14T13:34:44.520Z,12.80
2019-04-14T13:37:19.227Z,13.13
2019-04-14T13:39:48.581Z,13.00
2019-04-14T13:42:17.926Z,11.00
2019-04-14T13:44:47.386Z,11.97
2019-04-14T13:47:21.305Z,11.43
2019-04-14T13:49:50.603Z,12.10
2019-04-14T13:52:20.006Z,11.00
2019-04-14T13:54:49.347Z,11.47
2019-04-14T13:57:24.595Z,11.97
2019-04-14T13:59:53.912Z,10.47
2019-04-14T14:02:28.392Z,11.97
2019-04-14T14:04:58.144Z,10.83
2019-04-14T14:07:27.467Z,13.13
2019-04-14T14:09:57.242Z,11.13
2019-04-14T14:12:43.887Z,10.97
2019-04-14T14:15:33.491Z,10.70
2019-04-14T14:18:25.306Z,10.23
2019-04-14T14:21:17.214Z,9.17
2019-04-14T14:24:17.672Z,10.20
2019-04-14T14:26:48.045Z,8.87
2019-04-14T14:29:17.368Z,9.53
2019-04-14T14:31:46.709Z,9.10
2019-04-14T14:34:20.885Z,8.70
2019-04-14T14:36:50.744Z,8.83
2019-04-14T14:39:22.881Z,7.90
2019-04-14T14:41:54.250Z,7.87
2019-04-14T14:44:25.868Z,8.13
2019-04-14T14:47:05.117Z,7.40
2019-04-14T14:49:55.905Z,7.17
2019-04-14T14:52:25.398Z,8.10
2019-04-14T14:54:56.914Z,8.10
2019-04-14T14:57:26.827Z,8.07
2019-04-14T15:00:39.611Z,7.90
2019-04-14T15:03:09.490Z,9.57
2019-04-14T15:05:40.857Z,10.00
2019-04-14T15:08:12.301Z,11.00
2019-04-14T15:10:41.653Z,9.07
2019-04-14T15:13:15.255Z,9.23
2019-04-14T15:15:46.072Z,9.27
2019-04-14T15:18:15.612Z,10.30
2019-04-14T15:20:45.157Z,9.00
2019-04-14T15:23:24.250Z,11.40
2019-04-14T15:25:45.624Z,11.43
2019-04-14T15:28:15.852Z,10.43
2019-04-14T15:30:47.814Z,9.57
2019-04-14T15:33:17.810Z,10.73
2019-04-14T15:35:51.505Z,11.37
2019-04-14T15:38:24.943Z,11.03
2019-04-14T15:40:54.376Z,10.90
2019-04-14T15:43:28.320Z,10.67
2019-04-14T15:45:57.960Z,10.97
2019-04-14T15:48:30.331Z,11.57
2019-04-14T15:51:01.574Z,10.73
2019-04-14T15:53:38.505Z,11.67
2019-04-14T15:56:09.179Z,12.53
2019-04-14T15:59:18.323Z,12.50
2019-04-14T16:02:15.951Z,11.70
2019-04-14T16:05:01.706Z,11.00
2019-04-14T16:07:45.430Z,11.40
2019-04-14T16:10:27.416Z,11.23
2019-04-14T16:13:26.396Z,12.03
2019-04-14T16:16:01.905Z,11.27
2019-04-14T16:18:47.096Z,10.27
2019-04-14T16:21:21.948Z,11.17
2019-04-14T16:23:51.386Z,10.17
2019-04-14T16:26:37.882Z,10.87
2019-04-14T16:29:15.362Z,11.00
2019-04-14T16:32:26.544Z,9.90
2019-04-14T16:35:20.880Z,11.30
2019-04-14T16:37:50.255Z,10.10
2019-04-14T16:40:19.700Z,10.77
2019-04-14T16:42:49.188Z,10.67
2019-04-14T16:45:18.970Z,10.83
2019-04-14T16:47:51.069Z,13.17
2019-04-14T16:50:25.546Z,13.00
2019-04-14T16:53:13.330Z,12.47
2019-04-14T16:56:15.830Z,11.93
2019-04-14T16:58:54.098Z,11.93
2019-04-14T17:01:36.284Z,12.83
2019-04-14T17:04:05.687Z,12.40
2019-04-14T17:06:35.384Z,11.87
2019-04-14T17:09:07.977Z,12.23
2019-04-14T17:11:42.473Z,12.20
2019-04-14T17:14:32.102Z,13.03
2019-04-14T17:17:09.489Z,11.93
2019-04-14T17:19:50.026Z,12.07
2019-04-14T17:22:50.784Z,12.80
2019-04-14T17:25:26.524Z,13.00
2019-04-14T17:28:28.938Z,12.80
2019-04-14T17:31:28.225Z,12.13
2019-04-14T17:34:25.369Z,12.20
2019-04-14T17:37:08.547Z,12.60
2019-04-14T17:39:45.305Z,12.63
2019-04-14T17:42:30.626Z,12.70
2019-04-14T17:45:24.497Z,14.20
2019-04-14T17:48:19.703Z,13.37
2019-04-14T17:51:06.333Z,12.77
2019-04-14T17:54:12.377Z,13.80
2019-04-14T17:57:03.482Z,14.00
2019-04-14T17:59:41.226Z,14.80
2019-04-14T18:02:34.452Z,13.27
2019-04-14T18:05:06.795Z,12.50
2019-04-14T18:08:13.880Z,12.83
2019-04-14T18:11:02.373Z,12.93
2019-04-14T18:13:54.446Z,12.63
2019-04-14T18:16:46.012Z,12.33
2019-04-14T18:19:34.586Z,12.40
2019-04-14T18:22:04.143Z,13.90
2019-04-14T18:24:42.203Z,12.00
2019-04-14T18:27:10.877Z,12.73
2019-04-14T18:29:57.313Z,11.90
2019-04-14T18:32:51.549Z,10.73
2019-04-14T18:35:30.551Z,12.30
2019-04-14T18:38:14.816Z,11.73
2019-04-14T18:41:01.575Z,11.67
2019-04-14T18:43:48.059Z,10.43
2019-04-14T18:46:42.275Z,11.00
2019-04-14T18:49:49.620Z,11.40
2019-04-14T18:52:31.106Z,10.03
2019-04-14T18:55:19.924Z,9.70
2019-04-14T18:58:02.675Z,9.07
2019-04-14T19:00:45.550Z,8.93
2019-04-14T19:03:15.272Z,8.97
2019-04-14T19:05:45.692Z,9.33
2019-04-14T19:08:15.923Z,7.97
2019-04-14T19:10:53.086Z,10.03
2019-04-14T19:13:28.942Z,8.63
2019-04-14T19:16:11.548Z,8.13
2019-04-14T19:18:43.924Z,7.90
2019-04-14T19:21:20.171Z,7.40
2019-04-14T19:23:50.519Z,8.17
2019-04-14T19:26:21.421Z,7.37
2019-04-14T19:28:50.906Z,7.20
2019-04-14T19:31:22.788Z,6.93
2019-04-14T19:33:52.144Z,6.77
2019-04-14T19:36:21.776Z,7.30
2019-04-14T19:38:51.259Z,7.37
2019-04-14T19:41:20.888Z,6.93
2019-04-14T19:43:52.753Z,8.07
2019-04-14T19:46:31.053Z,7.50
2019-04-14T19:49:00.863Z,6.37
2019-04-14T19:51:30.325Z,7.07
2019-04-14T19:53:59.779Z,6.97
2019-04-14T19:56:29.128Z,6.17
2019-04-14T19:58:58.497Z,7.43
2019-04-14T20:01:29.376Z,6.07
2019-04-14T20:03:58.732Z,7.27
2019-04-14T20:06:28.142Z,6.17
2019-04-14T20:08:57.775Z,6.40
2019-04-14T20:11:27.695Z,6.13
2019-04-14T20:14:01.546Z,6.57
2019-04-14T20:16:59.481Z,6.30
2019-04-14T20:19:47.015Z,5.93
2019-04-14T20:22:38.654Z,6.03
2019-04-14T20:25:33.051Z,6.20
2019-04-14T20:28:05.806Z,6.00
2019-04-14T20:30:49.618Z,5.77
2019-04-14T20:33:19.662Z,6.20
2019-04-14T20:35:56.672Z,6.30
2019-04-14T20:38:26.616Z,6.20
2019-04-14T20:41:01.198Z,5.83
2019-04-14T20:43:35.716Z,5.13
2019-04-14T20:46:05.689Z,5.30
2019-04-14T20:48:35.646Z,6.63
2019-04-14T20:51:05.043Z,6.10
2019-04-14T20:53:34.395Z,5.40
2019-04-14T20:56:14.403Z,5.00
2019-04-14T20:58:54.514Z,5.83
2019-04-14T21:01:16.298Z,5.47
2019-04-14T21:04:19.762Z,6.67
2019-04-14T21:07:10.789Z,5.67
2019-04-14T21:09:47.049Z,5.23
2019-04-14T21:12:43.271Z,5.70
2019-04-14T21:15:19.955Z,4.90
2019-04-14T21:18:08.278Z,5.43
2019-04-14T21:21:00.918Z,5.40
2019-04-14T21:23:45.046Z,6.43
2019-04-14T21:26:26.247Z,4.93
2019-04-14T21:29:19.531Z,5.37
2019-04-14T21:32:11.385Z,5.67
2019-04-14T21:34:59.746Z,6.37
2019-04-14T21:37:52.082Z,5.67
2019-04-14T21:40:43.893Z,4.73
2019-04-14T21:43:33.617Z,6.00
2019-04-14T21:46:48.035Z,5.57
2019-04-14T21:49:45.512Z,6.10
2019-04-14T21:52:55.584Z,6.13
2019-04-14T21:55:28.702Z,5.23
2019-04-14T21:58:22.459Z,5.50
2019-04-14T22:01:54.611Z,6.43
2019-04-14T22:04:44.580Z,5.93
2019-04-14T22:07:38.315Z,6.80
2019-04-14T22:10:32.812Z,6.97
2019-04-14T22:13:02.156Z,7.33
2019-04-14T22:15:31.455Z,7.30
2019-04-14T22:18:01.605Z,7.80
2019-04-14T22:20:30.915Z,8.97
2019-04-14T22:23:01.107Z,6.50
2019-04-14T22:25:30.496Z,9.43
2019-04-14T22:27:59.915Z,8.60
2019-04-14T22:30:29.255Z,8.63
2019-04-14T22:32:58.638Z,8.03
2019-04-14T22:35:28.020Z,8.07
2019-04-14T22:37:57.314Z,7.80
2019-04-14T22:40:26.635Z,9.17
2019-04-14T22:42:58.005Z,9.87
2019-04-14T22:45:27.341Z,8.57
2019-04-14T22:47:56.723Z,8.77
2019-04-14T22:50:26.403Z,9.03
2019-04-14T22:52:55.849Z,9.47
2019-04-14T22:55:26.243Z,9.87
2019-04-14T22:57:57.898Z,8.23
2019-04-14T23:00:43.027Z,8.83
2019-04-14T23:03:38.707Z,8.23
2019-04-14T23:06:23.263Z,8.97
2019-04-14T23:08:56.475Z,9.30
2019-04-14T23:11:40.895Z,9.13
2019-04-14T23:14:29.883Z,9.07
2019-04-14T23:17:16.319Z,9.83
2019-04-14T23:20:04.590Z,9.27
2019-04-14T23:23:01.937Z,9.47
2019-04-14T23:25:31.259Z,9.00
2019-04-14T23:28:00.555Z,9.90
2019-04-14T23:30:29.859Z,10.30
2019-04-14T23:33:14.111Z,9.40
2019-04-14T23:35:43.468Z,9.93
2019-04-14T23:38:12.763Z,9.27
2019-04-14T23:40:42.131Z,10.97
2019-04-14T23:43:12.031Z,10.17
2019-04-14T23:45:41.338Z,9.27
2019-04-14T23:48:15.776Z,10.00
2019-04-14T23:50:48.582Z,10.47
2019-04-14T23:53:23.363Z,10.27
2019-04-14T23:55:57.906Z,10.43
2019-04-14T23:58:27.375Z,9.90
